This is the latest recevied weather packets stored in our database for station/object W0AKY-13. If no packets are shown the sender has not sent any weather packets the latest 10 day(s).
| Time | Temp. | Humidity | Pressure | Rain* | Wind** | Luminosity | Snow |
|---|---|---|---|---|---|---|---|
| 1777338038 | 10.56° C | 80% | 1012.6 hPa | 0 mm | - | 3 W/m² | - |
| 1777337734 | 11.11° C | 80% | 1012.6 hPa | 0 mm | - | 5 W/m² | - |
| 1777337128 | 11.11° C | 80% | 1012.4 hPa | 0 mm | - | 4 W/m² | - |
| 1777336223 | 11.67° C | 80% | 1012.3 hPa | 0 mm | - | 5 W/m² | - |
| 1777335920 | 11.67° C | 79% | 1012 hPa | 0 mm | - | 6 W/m² | - |
| 1777334406 | 11.67° C | 78% | 1011 hPa | 0 mm | - | 30 W/m² | - |
| 1777333499 | 12.22° C | 78% | 1010.8 hPa | 0 mm | - | 57 W/m² | - |
| 1777332894 | 12.22° C | 78% | 1010.6 hPa | 0 mm | - | 35 W/m² | - |
| 1777329262 | 12.78° C | 78% | 1009.6 hPa | 0 mm | - | 43 W/m² | - |
| 1777328053 | 13.33° C | 79% | 1009.1 hPa | 0 mm | - | 70 W/m² | - |
| 1777313521 | 15° C | 85% | 1005.8 hPa | 0 mm | - | 67 W/m² | - |
| 1777313218 | 15° C | 85% | 1005.8 hPa | 0 mm | - | 68 W/m² | - |
| 1777312914 | 15° C | 85% | 1005.7 hPa | 0 mm | - | 84 W/m² | - |
| 1777312611 | 15° C | 86% | 1005.6 hPa | 0 mm | - | 147 W/m² | - |
| 1777312308 | 15° C | 86% | 1005.6 hPa | 0 mm | - | 149 W/m² | - |
| 1777311400 | 15° C | 87% | 1005.8 hPa | 0 mm | - | 103 W/m² | - |
| 1777311096 | 15° C | 87% | 1005.5 hPa | 0 mm | - | 117 W/m² | - |
| 1777310795 | 15° C | 87% | 1005.3 hPa | 0 mm | - | 105 W/m² | - |
| 1777310492 | 15° C | 89% | 1005.2 hPa | 0 mm | - | 147 W/m² | - |
| 1777310189 | 15° C | 88% | 1005.3 hPa | 0 mm | - | 165 W/m² | - |
| 1777309585 | 14.44° C | 90% | 1005.1 hPa | 0 mm | - | 112 W/m² | - |
| 1777309281 | 14.44° C | 90% | 1005.2 hPa | 0 mm | - | 89 W/m² | - |
| 1777308980 | 14.44° C | 90% | 1005 hPa | 0 mm | - | 88 W/m² | - |
| 1777307461 | 15° C | 90% | 1004.5 hPa | 0 mm | - | 126 W/m² | - |
| 1777307158 | 15° C | 90% | 1004.7 hPa | 0 mm | - | 143 W/m² | - |
* Rain latest hour (hover to see other rain measurements)
** Current wind speed in m/s (hover to see current wind gust speed)